»·PEaware :: N7474B KSMX-KBFL

N7474B :: KSMX-KBFL

FLIGHT INFORMATION

Flight Status: Arrived
Operator: Privately registered:
United States
More flights under this callsign
Pilot: Wayne R. (17783)
Aircraft: CESSNA 172 SKYHAWK
(C172)
More flights by this aircraft type
Origin: KSMX Santa Maria Pub/Capt Hancock
United States
Destination: KBFL Meadows
United States
More flights between these airports :: More routes between these airports
Route: +
File this flight plan on PilotEdge
Remarks:
Altitude:
(Current/Filed)
5,500ft
Speed:
(Current/Filed)
0kts
Departed: 05-Jan-18 10:06 PM
Arrived: 05-Jan-18 10:50 PM
Distance/Time
Traveled:
76nm/0:44
Distance/Time
To Go:
Arrived

Flight Plot

Page will automatically refresh every two minutes.


Map Options




Map Legend


Flown Route
Filed Route
Departure Airport
Arrival Airport
Navaid (VOR, NDB)
Fix

Horizontal Profiles

Position Reports

Time Latitude Longitude Heading Altitude Ground
Speed
05-Jan-18 21:50 34.893640 -120.443515 263 264ft 0kts
05-Jan-18 21:51 34.893639 -120.443530 263 264ft 0kts
05-Jan-18 21:52 34.893638 -120.443545 263 264ft 0kts
05-Jan-18 21:53 34.893636 -120.443560 263 264ft 0kts
05-Jan-18 21:54 34.893635 -120.443575 263 264ft 0kts
05-Jan-18 21:55 34.893634 -120.443590 263 264ft 0kts
05-Jan-18 21:56 34.893632 -120.443605 263 264ft 0kts
05-Jan-18 21:57 34.893631 -120.443619 263 264ft 0kts
05-Jan-18 22:03 34.893610 -120.443815 261 264ft 0kts
05-Jan-18 22:04 34.893608 -120.443832 261 264ft 0kts
05-Jan-18 22:05 34.893606 -120.443851 261 264ft 0kts
05-Jan-18 22:06 34.893603 -120.443871 261 264ft 0kts
05-Jan-18 22:07 34.893601 -120.443888 260 264ft 0kts
05-Jan-18 22:08 34.893599 -120.443906 260 264ft 0kts
05-Jan-18 22:09 34.893596 -120.443925 260 264ft 0kts
05-Jan-18 22:10 34.893569 -120.445707 182 264ft 0kts
05-Jan-18 22:11 34.893168 -120.445878 242 264ft 11kts
05-Jan-18 22:12 34.904742 -120.460744 312 771ft 84kts
05-Jan-18 22:13 34.920021 -120.446483 57 1796ft 77kts
05-Jan-18 22:14 34.931102 -120.421446 66 2628ft 89kts
05-Jan-18 22:15 34.941105 -120.392944 66 3438ft 92kts
05-Jan-18 22:16 34.950669 -120.364251 66 4229ft 90kts
05-Jan-18 22:17 34.960070 -120.336242 60 5014ft 88kts
05-Jan-18 22:18 34.971592 -120.303690 60 5494ft 123kts
05-Jan-18 22:19 34.985322 -120.266367 60 5499ft 120kts
05-Jan-18 22:20 34.999125 -120.228856 60 5422ft 124kts
05-Jan-18 22:21 35.013782 -120.190060 60 5180ft 124kts
05-Jan-18 22:22 35.027717 -120.153163 60 5170ft 117kts
05-Jan-18 22:23 35.041352 -120.116879 60 5168ft 117kts
05-Jan-18 22:24 35.054903 -120.080793 60 5167ft 117kts
05-Jan-18 22:25 35.068449 -120.044709 60 5167ft 117kts
05-Jan-18 22:26 35.082040 -120.008508 60 5167ft 117kts
05-Jan-18 22:27 35.095586 -119.972458 60 5168ft 116kts
05-Jan-18 22:28 35.109176 -119.936301 60 5170ft 117kts
05-Jan-18 22:29 35.122987 -119.899671 60 5178ft 120kts
05-Jan-18 22:30 35.137196 -119.862131 60 5181ft 122kts
05-Jan-18 22:31 35.151364 -119.824684 60 5175ft 119kts
05-Jan-18 22:32 35.164976 -119.788438 60 5168ft 116kts
05-Jan-18 22:33 35.178390 -119.752654 60 5167ft 115kts
05-Jan-18 22:34 35.191783 -119.717006 60 5168ft 115kts
05-Jan-18 22:35 35.205216 -119.681269 60 5168ft 115kts
05-Jan-18 22:36 35.218607 -119.645667 60 5168ft 115kts
05-Jan-18 22:37 35.232004 -119.610055 60 5168ft 115kts
05-Jan-18 22:38 35.245436 -119.574343 60 5169ft 115kts
05-Jan-18 22:39 35.258837 -119.539110 62 5168ft 114kts
05-Jan-18 22:40 35.272244 -119.502822 63 5180ft 119kts
05-Jan-18 22:41 35.286035 -119.466330 63 5098ft 118kts
05-Jan-18 22:42 35.299706 -119.428976 66 4708ft 121kts
05-Jan-18 22:43 35.313282 -119.391162 66 4310ft 121kts
05-Jan-18 22:44 35.326853 -119.353411 66 3912ft 121kts
05-Jan-18 22:45 35.340413 -119.315543 66 3524ft 121kts
05-Jan-18 22:46 35.354080 -119.277421 66 3493ft 117kts
05-Jan-18 22:47 35.366867 -119.241562 66 3336ft 115kts
05-Jan-18 22:48 35.379654 -119.205693 66 3223ft 111kts
05-Jan-18 22:49 35.391320 -119.172977 66 3186ft 96kts
05-Jan-18 22:50 35.401197 -119.143215 71 2812ft 94kts
05-Jan-18 22:51 35.412461 -119.113968 62 2228ft 94kts
05-Jan-18 22:52 35.424484 -119.085490 63 1614ft 94kts
05-Jan-18 22:53 35.412711 -119.062539 134 1337ft 81kts
05-Jan-18 22:54 35.407372 -119.039838 53 868ft 79kts
05-Jan-18 22:55 35.422842 -119.046448 314 623ft 76kts
05-Jan-18 22:56 35.434305 -119.060022 344 510ft 17kts
05-Jan-18 22:57 35.435881 -119.055402 53 510ft 12kts
05-Jan-18 22:58 35.436328 -119.054734 323 510ft 0kts
05-Jan-18 22:59 35.436328 -119.054734 323 510ft 0kts
05-Jan-18 23:00 35.436328 -119.054734 323 510ft 0kts
05-Jan-18 23:01 35.436328 -119.054734 323 510ft 0kts
05-Jan-18 23:02 35.436328 -119.054734 323 510ft 0kts

Navigation Log

Ident Type
1. KSMX Airport
2. KBFL Airport